Time;durP1;ratioP1;P1;durP2;ratioP2;P2;SDS_P1;SDS_P2;PMS_P1;PMS_P2;Temp;Humidity;BMP_temperature;BMP_pressure;BME280_temperature;BME280_humidity;BME280_pressure;Samples;Min_cycle;Max_cycle;Signal;HPM_P1;HPM_P2
2023/07/17 00:01:18;;;;;;;4.43;3.10;;;;;;;;;;4380546;32;68009;-57
2023/07/17 00:04:05;;;;;;;5.28;3.37;;;;;;;;;;4380393;32;59233;-59
2023/07/17 00:06:52;;;;;;;4.07;3.00;;;;;;;;;;4380212;32;69501;-60
2023/07/17 00:09:38;;;;;;;;;;;;;;;;;;4380631;32;69261;-58
2023/07/17 00:12:25;;;;;;;5.35;3.00;;;;;;;;;;4413815;32;67575;-57
2023/07/17 00:15:11;;;;;;;5.15;3.20;;;;;;;;;;4391135;32;60486;-58
2023/07/17 00:17:58;;;;;;;;;;;;;;;;;;4413852;32;69693;-59
2023/07/17 00:20:44;;;;;;;4.82;3.00;;;;;;;;;;4390962;32;68812;-58
2023/07/17 00:23:31;;;;;;;;;;;;;;;;;;4391076;32;67751;-59
2023/07/17 00:26:18;;;;;;;5.07;3.30;;;;;;;;;;4379732;32;71719;-58
2023/07/17 00:29:23;;;;;;;;;;;;;;;;;;4377954;32;66644;-58
2023/07/17 00:32:13;;;;;;;4.97;3.15;;;;;;;;;;4390888;32;67367;-59
2023/07/17 00:34:59;;;;;;;4.95;3.28;;;;;;;;;;4388827;32;60861;-59
2023/07/17 00:37:46;;;;;;;4.53;2.70;;;;;;;;;;4390453;32;70527;-59
2023/07/17 00:43:16;;;;;;;5.37;3.40;;;;;;;;;;3847534;37;43653;-59
2023/07/17 00:46:04;;;;;;;6.15;3.83;;;;;;;;;;4388607;32;59172;-59
2023/07/17 00:48:51;;;;;;;4.57;3.20;;;;;;;;;;4399100;32;70906;-59
2023/07/17 00:51:39;;;;;;;7.10;3.55;;;;;;;;;;4399123;32;69323;-59
2023/07/17 00:54:28;;;;;;;6.65;4.03;;;;;;;;;;4387978;32;66577;-58
2023/07/17 00:57:17;;;;;;;6.15;3.80;;;;;;;;;;4398426;32;70493;-60
2023/07/17 01:00:08;;;;;;;5.37;3.58;;;;;;;;;;4388673;32;66398;-59
2023/07/17 01:02:56;;;;;;;4.32;3.17;;;;;;;;;;4392891;32;66396;-59
2023/07/17 01:05:45;;;;;;;5.57;3.17;;;;;;;;;;4393758;32;59169;-59
2023/07/17 01:08:31;;;;;;;;;;;;;;;;;;4406281;32;72182;-58
2023/07/17 01:11:18;;;;;;;6.30;3.40;;;;;;;;;;4414159;32;66333;-58
2023/07/17 01:14:05;;;;;;;6.10;3.15;;;;;;;;;;4414189;32;66926;-59
2023/07/17 01:16:53;;;;;;;6.95;3.30;;;;;;;;;;4393276;32;58106;-59
2023/07/17 01:19:40;;;;;;;5.32;3.53;;;;;;;;;;4402893;32;69829;-59
2023/07/17 01:22:31;;;;;;;5.85;3.35;;;;;;;;;;4398700;32;68207;-59
2023/07/17 01:25:18;;;;;;;6.10;3.00;;;;;;;;;;4405526;32;67778;-58
2023/07/17 01:28:05;;;;;;;4.12;2.90;;;;;;;;;;4406861;32;72064;-59
2023/07/17 01:30:51;;;;;;;5.28;3.12;;;;;;;;;;4410865;32;65868;-59
2023/07/17 01:33:38;;;;;;;4.62;3.10;;;;;;;;;;4387910;32;68505;-59
2023/07/17 01:36:26;;;;;;;3.53;2.80;;;;;;;;;;4410535;32;67527;-59
2023/07/17 01:39:12;;;;;;;5.25;3.00;;;;;;;;;;4387747;32;70816;-59
2023/07/17 01:42:01;;;;;;;6.32;3.20;;;;;;;;;;4398272;32;66018;-58
2023/07/17 01:44:47;;;;;;;;;;;;;;;;;;4409665;32;67697;-58
2023/07/17 01:47:34;;;;;;;6.68;3.60;;;;;;;;;;4411102;32;59019;-58
2023/07/17 01:50:20;;;;;;;4.20;2.95;;;;;;;;;;4387684;32;69584;-59
2023/07/17 01:53:07;;;;;;;3.75;2.90;;;;;;;;;;4383200;32;68388;-60
2023/07/17 01:55:54;;;;;;;4.35;2.90;;;;;;;;;;4387946;32;67487;-59
2023/07/17 01:58:40;;;;;;;;;;;;;;;;;;4378255;32;59295;-58
2023/07/17 02:01:27;;;;;;;6.93;3.28;;;;;;;;;;4398820;32;70051;-58
2023/07/17 02:04:14;;;;;;;4.35;2.97;;;;;;;;;;4388051;32;69128;-58
2023/07/17 02:07:00;;;;;;;;;;;;;;;;;;4388521;32;67609;-57
2023/07/17 02:09:47;;;;;;;;;;;;;;;;;;4398038;32;70815;-59
2023/07/17 02:12:34;;;;;;;4.85;3.25;;;;;;;;;;4399043;32;65906;-59
2023/07/17 02:15:21;;;;;;;3.95;2.53;;;;;;;;;;4387881;32;66808;-58
2023/07/17 02:18:08;;;;;;;4.40;3.50;;;;;;;;;;4387469;32;57872;-58
2023/07/17 02:20:55;;;;;;;5.32;3.60;;;;;;;;;;4386973;32;69332;-58
2023/07/17 02:23:41;;;;;;;;;;;;;;;;;;4398898;32;65939;-59
2023/07/17 02:26:28;;;;;;;6.47;3.80;;;;;;;;;;4400553;32;67657;-58
2023/07/17 02:29:15;;;;;;;5.53;3.53;;;;;;;;;;4389193;32;59265;-59
2023/07/17 02:32:01;;;;;;;;;;;;;;;;;;4400000;32;70320;-58
2023/07/17 02:34:47;;;;;;;5.87;3.50;;;;;;;;;;4398511;32;68548;-59
2023/07/17 02:37:34;;;;;;;;;;;;;;;;;;4400008;32;67470;-58
2023/07/17 02:40:22;;;;;;;5.37;3.60;;;;;;;;;;4387940;32;71733;-60
2023/07/17 02:43:09;;;;;;;8.45;3.60;;;;;;;;;;4397570;32;64671;-58
2023/07/17 02:45:56;;;;;;;8.10;3.87;;;;;;;;;;4398707;32;66507;-59
2023/07/17 02:48:43;;;;;;;5.62;3.50;;;;;;;;;;4376971;32;67803;-58
2023/07/17 02:51:31;;;;;;;4.93;3.53;;;;;;;;;;4387317;32;71606;-58
2023/07/17 02:54:17;;;;;;;;;;;;;;;;;;4398613;32;65069;-58
2023/07/17 02:57:05;;;;;;;6.67;3.73;;;;;;;;;;4398365;32;67442;-59
2023/07/17 02:59:54;;;;;;;11.02;4.15;;;;;;;;;;4398263;32;60379;-57
2023/07/17 03:02:42;;;;;;;6.60;3.90;;;;;;;;;;4386347;32;68397;-59
2023/07/17 03:05:30;;;;;;;5.95;3.70;;;;;;;;;;4386562;32;68526;-59
2023/07/17 03:08:18;;;;;;;7.53;4.20;;;;;;;;;;4397933;32;66980;-58
2023/07/17 03:11:05;;;;;;;5.22;3.83;;;;;;;;;;4397778;32;57859;-59
2023/07/17 03:13:52;;;;;;;6.45;3.80;;;;;;;;;;4387140;32;69516;-57
2023/07/17 03:16:39;;;;;;;6.72;4.00;;;;;;;;;;4365391;32;68332;-58
2023/07/17 03:19:26;;;;;;;6.45;3.90;;;;;;;;;;4399146;32;67597;-59
2023/07/17 03:22:13;;;;;;;5.40;3.50;;;;;;;;;;4386464;32;70873;-59
2023/07/17 03:25:01;;;;;;;6.15;3.97;;;;;;;;;;4376424;32;65983;-58
2023/07/17 03:27:48;;;;;;;5.28;3.70;;;;;;;;;;4387340;32;67469;-59
2023/07/17 03:30:34;;;;;;;5.57;4.03;;;;;;;;;;4398028;32;59236;-59
2023/07/17 03:33:21;;;;;;;3.05;2.10;;;;;;;;;;4376020;32;70573;-59
2023/07/17 03:36:07;;;;;;;6.10;3.10;;;;;;;;;;4398935;32;64624;-58
2023/07/17 03:38:54;;;;;;;6.40;3.50;;;;;;;;;;4376279;32;66789;-59
2023/07/17 03:41:41;;;;;;;6.00;4.15;;;;;;;;;;4397482;32;60175;-60
2023/07/17 03:44:29;;;;;;;5.03;3.03;;;;;;;;;;4376287;32;69478;-59
2023/07/17 03:47:16;;;;;;;6.87;3.80;;;;;;;;;;4398400;32;68559;-59
2023/07/17 03:50:04;;;;;;;6.22;4.53;;;;;;;;;;4397104;32;67584;-59
2023/07/17 03:52:51;;;;;;;6.55;4.12;;;;;;;;;;4386915;32;71682;-59
2023/07/17 03:55:39;;;;;;;7.60;4.25;;;;;;;;;;4397298;32;65722;-58
2023/07/17 03:58:27;;;;;;;8.13;4.75;;;;;;;;;;4376107;32;66794;-57
2023/07/17 04:01:14;;;;;;;7.82;4.72;;;;;;;;;;4375193;32;68524;-59
2023/07/17 04:04:05;;;;;;;7.82;5.30;;;;;;;;;;4385723;32;72262;-58
2023/07/17 04:06:51;;;;;;;7.80;4.70;;;;;;;;;;4386629;32;65931;-59
2023/07/17 04:09:39;;;;;;;8.38;4.72;;;;;;;;;;4386666;32;67499;-59
2023/07/17 04:12:25;;;;;;;8.50;4.85;;;;;;;;;;4386715;32;59292;-59
2023/07/17 04:15:12;;;;;;;8.10;5.15;;;;;;;;;;4386298;32;69420;-58
2023/07/17 04:17:59;;;;;;;;;;;;;;;;;;4386865;32;68308;-59
2023/07/17 04:20:45;;;;;;;7.43;4.72;;;;;;;;;;4397351;32;67932;-59
2023/07/17 04:23:32;;;;;;;6.60;5.32;;;;;;;;;;4375876;32;71907;-59
2023/07/17 04:26:20;;;;;;;13.68;6.30;;;;;;;;;;4385962;32;71693;-58
2023/07/17 04:29:10;;;;;;;;;;;;;;;;;;4386702;32;69172;-59
2023/07/17 04:31:57;;;;;;;7.78;5.10;;;;;;;;;;4398347;32;66915;-59
2023/07/17 04:34:44;;;;;;;6.72;5.30;;;;;;;;;;4386194;32;71694;-58
2023/07/17 04:37:31;;;;;;;8.70;5.40;;;;;;;;;;4375678;32;65915;-59
2023/07/17 04:40:18;;;;;;;7.20;4.37;;;;;;;;;;4396819;32;67814;-59
2023/07/17 04:43:05;;;;;;;5.05;4.20;;;;;;;;;;4386415;32;60274;-59
2023/07/17 04:45:53;;;;;;;4.30;3.25;;;;;;;;;;4386236;32;71068;-59
2023/07/17 04:48:39;;;;;;;7.18;4.50;;;;;;;;;;4396780;32;68379;-59
2023/07/17 04:51:28;;;;;;;1.55;1.10;;;;;;;;;;4385635;32;68370;-59
2023/07/17 04:54:14;;;;;;;4.50;2.90;;;;;;;;;;4375469;32;60506;-59
2023/07/17 04:57:01;;;;;;;6.03;3.83;;;;;;;;;;4397838;32;70658;-59
2023/07/17 04:59:48;;;;;;;7.65;4.65;;;;;;;;;;4364377;32;69468;-59
2023/07/17 05:02:36;;;;;;;6.68;4.45;;;;;;;;;;4385272;32;67219;-59
2023/07/17 05:05:22;;;;;;;5.85;3.97;;;;;;;;;;4386014;32;71736;-58
2023/07/17 05:08:09;;;;;;;7.35;4.62;;;;;;;;;;4386066;32;65802;-59
2023/07/17 05:11:00;;;;;;;1.05;0.90;;;;;;;;;;4396186;32;67370;-59
2023/07/17 05:13:47;;;;;;;4.25;3.50;;;;;;;;;;4386140;32;60143;-58
2023/07/17 05:16:34;;;;;;;6.20;4.25;;;;;;;;;;4375195;32;71408;-58
2023/07/17 05:19:21;;;;;;;2.75;2.05;;;;;;;;;;4396603;32;65054;-59
2023/07/17 05:22:08;;;;;;;5.22;4.15;;;;;;;;;;4385821;32;66920;-59
2023/07/17 05:24:56;;;;;;;6.40;4.50;;;;;;;;;;4375760;32;60410;-59
2023/07/17 05:27:42;;;;;;;7.20;4.37;;;;;;;;;;4385224;32;70611;-58
2023/07/17 05:30:29;;;;;;;6.78;4.68;;;;;;;;;;4388326;32;68400;-59
2023/07/17 05:33:16;;;;;;;5.68;4.00;;;;;;;;;;4387808;32;66875;-58
2023/07/17 05:36:02;;;;;;;;;;;;;;;;;;4400838;32;71864;-58
2023/07/17 05:38:49;;;;;;;6.72;4.15;;;;;;;;;;4387610;32;70627;-59
2023/07/17 05:41:41;;;;;;;7.57;4.30;;;;;;;;;;4376946;32;68931;-59
2023/07/17 05:44:29;;;;;;;5.18;4.12;;;;;;;;;;4398794;32;67755;-59
2023/07/17 05:47:16;;;;;;;6.37;4.43;;;;;;;;;;4387424;32;69595;-60
2023/07/17 05:50:03;;;;;;;;;;;;;;;;;;4388524;32;66281;-59
2023/07/17 05:52:50;;;;;;;6.40;4.27;;;;;;;;;;4387621;32;68463;-60
2023/07/17 05:55:37;;;;;;;3.37;1.00;;;;;;;;;;4388087;32;60122;-59
2023/07/17 05:58:24;;;;;;;10.73;4.55;;;;;;;;;;4399993;32;70237;-58
2023/07/17 06:01:11;;;;;;;6.62;3.70;;;;;;;;;;4377313;32;69255;-57
2023/07/17 06:03:57;;;;;;;;;;;;;;;;;;4388405;32;66888;-59
2023/07/17 06:06:43;;;;;;;10.02;4.12;;;;;;;;;;4388368;32;59813;-58
2023/07/17 06:09:30;;;;;;;;;;;;;;;;;;4398619;32;70985;-59
2023/07/17 06:12:16;;;;;;;9.75;5.62;;;;;;;;;;4376741;32;69019;-58
2023/07/17 06:15:04;;;;;;;7.45;3.87;;;;;;;;;;4398592;32;66679;-58
2023/07/17 06:17:50;;;;;;;6.20;3.90;;;;;;;;;;4387558;32;71744;-60
2023/07/17 06:20:37;;;;;;;8.77;3.55;;;;;;;;;;4387844;32;65965;-58
2023/07/17 06:23:23;;;;;;;5.43;3.70;;;;;;;;;;4398620;32;67950;-58
2023/07/17 06:26:10;;;;;;;5.75;3.78;;;;;;;;;;4398544;32;59382;-60
2023/07/17 06:28:56;;;;;;;4.55;3.03;;;;;;;;;;4398376;32;71640;-58
2023/07/17 06:31:43;;;;;;;5.87;3.62;;;;;;;;;;4387639;32;65984;-59
2023/07/17 06:34:29;;;;;;;4.15;3.45;;;;;;;;;;4387442;32;67322;-60
2023/07/17 06:37:16;;;;;;;;;;;;;;;;;;4398053;32;60894;-59
2023/07/17 06:40:04;;;;;;;7.03;3.80;;;;;;;;;;4397643;32;70709;-59
2023/07/17 06:42:51;;;;;;;6.28;3.92;;;;;;;;;;4387174;32;69353;-60
2023/07/17 06:45:37;;;;;;;;;;;;;;;;;;4376885;32;68645;-60
2023/07/17 06:48:23;;;;;;;;;;;;;;;;;;4398741;32;71529;-59
2023/07/17 06:51:10;;;;;;;5.55;4.03;;;;;;;;;;4376929;32;66124;-60
2023/07/17 06:53:57;;;;;;;7.35;3.97;;;;;;;;;;4387081;32;68262;-59
2023/07/17 06:56:44;;;;;;;2.42;1.55;;;;;;;;;;4376468;32;66459;-60
2023/07/17 06:59:31;;;;;;;6.10;4.03;;;;;;;;;;4376030;32;72613;-60
2023/07/17 07:02:18;;;;;;;6.18;3.50;;;;;;;;;;4399399;32;65992;-59
2023/07/17 07:05:05;;;;;;;3.92;2.70;;;;;;;;;;4387609;32;67961;-59
2023/07/17 07:07:51;;;;;;;5.72;4.12;;;;;;;;;;4377799;32;59081;-60
2023/07/17 07:10:38;;;;;;;5.75;4.00;;;;;;;;;;4388194;32;69568;-58
2023/07/17 07:13:26;;;;;;;7.50;4.25;;;;;;;;;;4387508;32;68274;-59
2023/07/17 07:16:13;;;;;;;5.62;3.20;;;;;;;;;;4386606;32;68671;-59
2023/07/17 07:18:59;;;;;;;6.78;3.90;;;;;;;;;;4398689;32;60053;-59
2023/07/17 07:21:47;;;;;;;6.00;3.80;;;;;;;;;;4376101;32;70362;-60
2023/07/17 07:24:33;;;;;;;7.85;3.75;;;;;;;;;;4376128;32;68412;-59
2023/07/17 07:27:21;;;;;;;4.82;3.65;;;;;;;;;;4386860;32;66705;-59
2023/07/17 07:30:08;;;;;;;6.82;3.55;;;;;;;;;;4397253;32;72180;-59
2023/07/17 07:32:55;;;;;;;4.43;3.20;;;;;;;;;;4386794;32;66307;-58
2023/07/17 07:35:44;;;;;;;2.10;1.48;;;;;;;;;;4375948;32;67858;-59
2023/07/17 07:38:31;;;;;;;6.37;3.92;;;;;;;;;;4397566;32;60006;-58
2023/07/17 07:41:18;;;;;;;7.85;4.37;;;;;;;;;;4375372;32;69510;-59
2023/07/17 07:44:05;;;;;;;6.43;3.85;;;;;;;;;;4387403;32;65705;-58
2023/07/17 07:46:51;;;;;;;4.15;2.85;;;;;;;;;;4375478;32;67644;-58
2023/07/17 07:49:38;;;;;;;4.95;3.62;;;;;;;;;;4386679;32;60527;-57
2023/07/17 07:52:25;;;;;;;8.15;3.78;;;;;;;;;;4396615;32;70624;-58
2023/07/17 07:55:11;;;;;;;6.85;3.55;;;;;;;;;;4396848;32;69274;-57
2023/07/17 07:57:57;;;;;;;5.82;3.12;;;;;;;;;;4398097;32;67707;-59
2023/07/17 08:00:44;;;;;;;3.92;2.90;;;;;;;;;;4398254;32;70841;-58
2023/07/17 08:03:35;;;;;;;4.60;3.58;;;;;;;;;;4397711;32;64919;-57
2023/07/17 08:06:22;;;;;;;4.95;3.80;;;;;;;;;;4385536;32;68498;-57
2023/07/17 08:09:08;;;;;;;4.85;3.53;;;;;;;;;;4396942;32;66741;-59
2023/07/17 08:11:55;;;;;;;5.00;3.58;;;;;;;;;;4386035;32;71539;-58
2023/07/17 08:14:42;;;;;;;5.50;3.50;;;;;;;;;;4386110;32;66424;-58
2023/07/17 08:17:29;;;;;;;6.07;3.85;;;;;;;;;;4386259;32;67813;-57
2023/07/17 08:20:15;;;;;;;5.35;3.40;;;;;;;;;;4364643;32;59712;-58
2023/07/17 08:23:02;;;;;;;5.03;3.20;;;;;;;;;;4385819;32;70922;-58
2023/07/17 08:25:48;;;;;;;;;;;;;;;;;;4386635;32;69523;-58
2023/07/17 08:28:35;;;;;;;5.25;3.15;;;;;;;;;;4396784;32;67775;-58
2023/07/17 08:31:21;;;;;;;;;;;;;;;;;;4375632;32;60186;-60
2023/07/17 08:34:07;;;;;;;5.20;3.50;;;;;;;;;;4385016;32;69848;-57
2023/07/17 08:36:54;;;;;;;5.32;3.50;;;;;;;;;;4396521;32;69406;-58
2023/07/17 08:39:40;;;;;;;;;;;;;;;;;;4396907;32;67938;-56
2023/07/17 08:42:27;;;;;;;4.87;3.53;;;;;;;;;;4385375;32;72462;-58
2023/07/17 08:45:14;;;;;;;4.62;2.72;;;;;;;;;;4375142;32;65178;-58
2023/07/17 08:48:01;;;;;;;0.62;0.62;;;;;;;;;;4396450;32;68252;-57
2023/07/17 08:50:47;;;;;;;;;;;;;;;;;;4364516;32;60823;-57
2023/07/17 08:53:36;;;;;;;5.67;3.40;;;;;;;;;;4385042;32;69218;-58
2023/07/17 08:56:23;;;;;;;7.18;2.83;;;;;;;;;;4375146;32;65623;-58
2023/07/17 08:59:11;;;;;;;7.15;4.22;;;;;;;;;;4385964;32;67892;-59
2023/07/17 09:01:58;;;;;;;5.57;3.92;;;;;;;;;;4386374;32;60037;-59
2023/07/17 09:04:45;;;;;;;5.60;3.40;;;;;;;;;;4387829;32;69717;-57
2023/07/17 09:07:31;;;;;;;4.22;3.17;;;;;;;;;;4388645;32;68354;-58
2023/07/17 09:10:23;;;;;;;5.03;3.85;;;;;;;;;;4388678;32;67433;-58
2023/07/17 09:13:11;;;;;;;4.35;3.37;;;;;;;;;;4400112;32;71499;-57
2023/07/17 09:16:11;;;;;;;5.12;4.25;;;;;;;;;;4377916;32;66294;-57
2023/07/17 09:19:00;;;;;;;6.00;4.25;;;;;;;;;;4376927;32;67500;-58
2023/07/17 09:21:46;;;;;;;5.43;3.83;;;;;;;;;;4399377;32;67714;-58
2023/07/17 09:24:35;;;;;;;8.48;4.45;;;;;;;;;;4376690;32;72524;-59
2023/07/17 09:27:22;;;;;;;7.65;4.00;;;;;;;;;;4388376;32;66177;-57
2023/07/17 09:30:09;;;;;;;;;;;;;;;;;;4388556;32;66969;-59
2023/07/17 09:33:06;;;;;;;6.72;4.35;;;;;;;;;;4387962;32;59421;-58
2023/07/17 09:35:56;;;;;;;4.22;2.83;;;;;;;;;;4387287;32;70880;-58
2023/07/17 09:38:43;;;;;;;6.03;3.37;;;;;;;;;;4388026;32;68795;-58
2023/07/17 09:41:30;;;;;;;6.55;4.30;;;;;;;;;;4377323;32;66695;-57
2023/07/17 09:44:20;;;;;;;7.80;4.03;;;;;;;;;;4398777;32;70828;-58
2023/07/17 09:47:06;;;;;;;6.35;4.05;;;;;;;;;;4377327;32;70767;-57
2023/07/17 09:49:54;;;;;;;7.55;3.83;;;;;;;;;;4377363;32;69276;-57
2023/07/17 09:52:45;;;;;;;7.32;4.22;;;;;;;;;;4377244;32;67774;-59
2023/07/17 09:55:33;;;;;;;5.45;3.50;;;;;;;;;;4377230;32;70686;-58
2023/07/17 09:58:20;;;;;;;6.72;4.90;;;;;;;;;;4388301;32;64902;-59
2023/07/17 10:01:08;;;;;;;7.72;3.55;;;;;;;;;;4366322;32;69227;-58
2023/07/17 10:03:55;;;;;;;7.00;4.72;;;;;;;;;;4388054;32;60370;-58
2023/07/17 10:06:43;;;;;;;6.45;3.78;;;;;;;;;;4398524;32;70619;-59
2023/07/17 10:09:30;;;;;;;6.80;4.25;;;;;;;;;;4377228;32;69915;-58
2023/07/17 10:12:17;;;;;;;6.75;5.05;;;;;;;;;;4387790;32;67850;-59
2023/07/17 10:15:05;;;;;;;5.53;3.70;;;;;;;;;;4387663;32;60089;-58
2023/07/17 10:17:59;;;;;;;8.05;5.97;;;;;;;;;;4387306;32;71624;-58
2023/07/17 10:20:54;;;;;;;3.70;2.30;;;;;;;;;;4387625;32;69710;-59
2023/07/17 10:23:43;;;;;;;9.70;5.47;;;;;;;;;;4386890;32;67788;-58
2023/07/17 10:26:30;;;;;;;7.32;5.18;;;;;;;;;;4397965;32;70638;-58
2023/07/17 10:29:42;;;;;;;8.77;5.50;;;;;;;;;;4398309;32;65887;-57
2023/07/17 10:32:40;;;;;;;7.28;4.30;;;;;;;;;;4399714;32;67128;-58
2023/07/17 10:35:27;;;;;;;10.90;5.25;;;;;;;;;;4365656;32;68789;-58
2023/07/17 10:38:22;;;;;;;10.35;6.30;;;;;;;;;;4387075;32;70232;-60
2023/07/17 10:41:14;;;;;;;9.63;5.75;;;;;;;;;;4376672;32;65874;-59
2023/07/17 10:44:03;;;;;;;8.75;5.45;;;;;;;;;;4387301;32;67195;-58
2023/07/17 10:46:50;;;;;;;9.65;5.07;;;;;;;;;;4387564;32;59217;-58
2023/07/17 10:49:37;;;;;;;7.80;5.32;;;;;;;;;;4376626;32;70505;-58
2023/07/17 10:52:23;;;;;;;;;;;;;;;;;;4376971;32;69269;-59
2023/07/17 10:55:10;;;;;;;11.40;5.57;;;;;;;;;;4387234;32;67011;-59
2023/07/17 10:57:56;;;;;;;;;;;;;;;;;;4375812;32;71471;-58
2023/07/17 11:00:44;;;;;;;7.97;5.10;;;;;;;;;;4376103;32;70247;-59
2023/07/17 11:03:30;;;;;;;9.48;4.75;;;;;;;;;;4376323;32;68963;-58
2023/07/17 11:06:19;;;;;;;6.93;5.12;;;;;;;;;;4387211;32;67973;-59
2023/07/17 11:09:07;;;;;;;7.87;5.20;;;;;;;;;;4386782;32;71938;-58
2023/07/17 11:11:53;;;;;;;9.73;5.32;;;;;;;;;;4397525;32;65745;-58
2023/07/17 11:14:40;;;;;;;;;;;;;;;;;;4398267;32;67047;-58
2023/07/17 11:17:26;;;;;;;7.75;5.00;;;;;;;;;;4398444;32;59795;-58
2023/07/17 11:20:13;;;;;;;;;;;;;;;;;;4397511;32;71094;-59
2023/07/17 11:23:00;;;;;;;8.60;5.97;;;;;;;;;;4397817;32;69219;-57
2023/07/17 11:25:46;;;;;;;9.20;5.62;;;;;;;;;;4385895;32;67845;-58
2023/07/17 11:28:34;;;;;;;8.63;5.82;;;;;;;;;;4386994;32;61236;-58
2023/07/17 11:31:24;;;;;;;;;;;;;;;;;;4387241;32;70391;-58
2023/07/17 11:34:11;;;;;;;11.88;6.03;;;;;;;;;;4397464;32;68730;-58
2023/07/17 11:36:58;;;;;;;18.17;6.15;;;;;;;;;;4376181;32;67727;-58
2023/07/17 11:39:44;;;;;;;;;;;;;;;;;;4386927;32;71792;-58
2023/07/17 11:42:51;;;;;;;11.27;6.28;;;;;;;;;;4396771;32;66862;-57
2023/07/17 11:45:38;;;;;;;8.60;5.78;;;;;;;;;;4397171;32;68107;-58
2023/07/17 11:48:25;;;;;;;10.50;6.65;;;;;;;;;;4386233;32;59832;-59
2023/07/17 11:51:12;;;;;;;9.77;6.30;;;;;;;;;;4385606;32;71798;-58
2023/07/17 11:53:59;;;;;;;8.65;6.10;;;;;;;;;;4364913;32;64631;-58
2023/07/17 11:56:52;;;;;;;;;;;;;;;;;;4398894;32;67768;-58
2023/07/17 11:59:38;;;;;;;10.25;7.32;;;;;;;;;;4387356;32;59612;-58
2023/07/17 12:02:25;;;;;;;9.73;7.07;;;;;;;;;;4375235;32;69038;-58
2023/07/17 12:05:12;;;;;;;;;;;;;;;;;;4386520;32;69361;-58
2023/07/17 12:07:58;;;;;;;9.10;6.75;;;;;;;;;;4397010;32;66961;-58
2023/07/17 12:10:45;;;;;;;10.35;7.22;;;;;;;;;;4385727;32;72627;-59
2023/07/17 12:13:31;;;;;;;12.73;7.07;;;;;;;;;;4386665;32;64984;-58
2023/07/17 12:16:17;;;;;;;;;;;;;;;;;;4397264;32;69131;-57
2023/07/17 12:19:04;;;;;;;10.50;7.40;;;;;;;;;;4398544;32;67398;-60
2023/07/17 12:21:53;;;;;;;10.57;7.25;;;;;;;;;;4386103;32;71724;-59
2023/07/17 12:24:40;;;;;;;11.55;6.50;;;;;;;;;;4396673;32;65867;-58
2023/07/17 12:27:27;;;;;;;12.40;6.10;;;;;;;;;;4398093;32;67238;-58
2023/07/17 12:30:14;;;;;;;7.62;5.57;;;;;;;;;;4375674;32;59353;-58
2023/07/17 12:33:01;;;;;;;10.70;6.00;;;;;;;;;;4385874;32;70202;-59
2023/07/17 12:35:47;;;;;;;9.85;7.00;;;;;;;;;;4386539;32;69619;-57
2023/07/17 12:38:34;;;;;;;8.70;5.90;;;;;;;;;;4396619;32;67824;-59
2023/07/17 12:41:20;;;;;;;10.40;7.18;;;;;;;;;;4397710;32;60025;-58
2023/07/17 12:44:08;;;;;;;;;;;;;;;;;;4385783;32;71382;-56
2023/07/17 12:46:54;;;;;;;9.73;6.30;;;;;;;;;;4385347;32;70418;-59
2023/07/17 12:49:41;;;;;;;9.45;6.22;;;;;;;;;;4375122;32;67663;-59
2023/07/17 12:52:27;;;;;;;10.05;7.15;;;;;;;;;;4396008;32;72216;-58
2023/07/17 12:55:14;;;;;;;9.27;6.50;;;;;;;;;;4375444;32;66218;-58
2023/07/17 12:58:00;;;;;;;;;;;;;;;;;;4375509;32;67930;-59
2023/07/17 13:00:47;;;;;;;10.07;5.75;;;;;;;;;;4396788;32;59196;-58
2023/07/17 13:03:34;;;;;;;8.88;5.75;;;;;;;;;;4385523;32;71793;-58
2023/07/17 13:06:20;;;;;;;7.85;5.70;;;;;;;;;;4375023;32;66174;-57
2023/07/17 13:09:09;;;;;;;;;;;;;;;;;;4374988;32;66672;-58
2023/07/17 13:11:56;;;;;;;7.90;4.60;;;;;;;;;;4398184;32;60060;-58
2023/07/17 13:14:43;;;;;;;11.27;5.80;;;;;;;;;;4385638;32;69779;-59
2023/07/17 13:17:29;;;;;;;;;;;;;;;;;;4385974;32;69224;-58
2023/07/17 13:20:16;;;;;;;8.68;5.68;;;;;;;;;;4385708;32;67386;-58
2023/07/17 13:23:03;;;;;;;8.48;6.20;;;;;;;;;;4384582;32;72536;-58
2023/07/17 13:25:50;;;;;;;9.50;5.90;;;;;;;;;;4385054;32;66844;-58
2023/07/17 13:28:37;;;;;;;9.32;5.70;;;;;;;;;;4374818;32;68467;-58
2023/07/17 13:31:23;;;;;;;;;;;;;;;;;;4397714;32;66929;-59
2023/07/17 13:34:10;;;;;;;10.48;6.85;;;;;;;;;;4397641;32;71848;-58
2023/07/17 13:36:56;;;;;;;9.88;7.47;;;;;;;;;;4385778;32;65996;-58
2023/07/17 13:39:43;;;;;;;10.90;6.93;;;;;;;;;;4374068;32;68599;-58
2023/07/17 13:42:30;;;;;;;9.15;6.37;;;;;;;;;;4385253;32;59459;-59
2023/07/17 13:45:16;;;;;;;;;;;;;;;;;;4385069;32;71232;-57
2023/07/17 13:48:03;;;;;;;8.20;6.00;;;;;;;;;;4385355;32;68682;-58
2023/07/17 13:50:50;;;;;;;10.98;7.45;;;;;;;;;;4377068;32;67403;-58
2023/07/17 13:53:36;;;;;;;10.15;6.28;;;;;;;;;;4398702;32;59968;-58
2023/07/17 13:56:23;;;;;;;9.65;6.37;;;;;;;;;;4398241;32;69349;-59
2023/07/17 13:59:10;;;;;;;;;;;;;;;;;;4377641;32;69776;-58
2023/07/17 14:01:57;;;;;;;9.10;5.95;;;;;;;;;;4398799;32;66993;-58
2023/07/17 14:04:43;;;;;;;9.02;6.00;;;;;;;;;;4399605;32;70401;-58
2023/07/17 14:07:30;;;;;;;9.95;6.97;;;;;;;;;;4388248;32;66207;-58
2023/07/17 14:10:17;;;;;;;6.97;5.20;;;;;;;;;;4387691;32;67460;-59
2023/07/17 14:13:03;;;;;;;10.48;6.10;;;;;;;;;;4398226;32;57583;-57
2023/07/17 14:15:51;;;;;;;;;;;;;;;;;;4388385;32;69908;-57
2023/07/17 14:18:38;;;;;;;8.48;5.85;;;;;;;;;;4387822;32;65560;-57
2023/07/17 14:21:24;;;;;;;9.02;6.22;;;;;;;;;;4377072;32;66914;-57
2023/07/17 14:24:11;;;;;;;;;;;;;;;;;;4398976;32;59815;-58
2023/07/17 14:26:58;;;;;;;9.50;5.73;;;;;;;;;;4386811;32;71083;-59
2023/07/17 14:29:46;;;;;;;9.15;6.05;;;;;;;;;;4387242;32;68047;-57
2023/07/17 14:32:33;;;;;;;8.45;5.62;;;;;;;;;;4377181;32;66767;-58
2023/07/17 14:35:20;;;;;;;7.55;5.47;;;;;;;;;;4376059;32;71395;-58
2023/07/17 14:38:07;;;;;;;8.75;5.05;;;;;;;;;;4386938;32;66600;-58
2023/07/17 14:40:53;;;;;;;8.63;5.50;;;;;;;;;;4387400;32;68145;-59
2023/07/17 14:43:40;;;;;;;4.82;3.28;;;;;;;;;;4376938;32;66903;-58
2023/07/17 14:46:28;;;;;;;;;;;;;;;;;;4387431;32;71849;-58
2023/07/17 14:49:15;;;;;;;7.05;4.75;;;;;;;;;;4387550;32;65149;-58
2023/07/17 14:52:01;;;;;;;;;;;;;;;;;;4388000;32;68012;-58
2023/07/17 14:54:48;;;;;;;8.63;5.60;;;;;;;;;;4387894;32;60232;-61
2023/07/17 14:57:34;;;;;;;8.50;5.62;;;;;;;;;;4377360;32;71207;-58
2023/07/17 15:00:22;;;;;;;8.15;5.40;;;;;;;;;;4389070;32;69250;-58
2023/07/17 15:03:08;;;;;;;8.35;5.22;;;;;;;;;;4366649;32;66308;-58
2023/07/17 15:05:56;;;;;;;7.75;5.15;;;;;;;;;;4387633;32;59052;-58
2023/07/17 15:08:45;;;;;;;9.70;5.20;;;;;;;;;;4397888;32;70711;-59
2023/07/17 15:11:32;;;;;;;8.55;5.57;;;;;;;;;;4386679;32;67391;-58
2023/07/17 15:14:19;;;;;;;7.53;5.10;;;;;;;;;;4376719;32;66785;-59
2023/07/17 15:17:05;;;;;;;;;;;;;;;;;;4365642;32;72014;-58
2023/07/17 15:19:53;;;;;;;9.18;4.53;;;;;;;;;;4398059;32;65868;-57
2023/07/17 15:22:42;;;;;;;7.80;4.62;;;;;;;;;;4376353;32;68178;-58
2023/07/17 15:25:29;;;;;;;9.07;4.93;;;;;;;;;;4387486;32;60138;-59
2023/07/17 15:28:16;;;;;;;8.63;5.40;;;;;;;;;;4399038;32;70372;-58
2023/07/17 15:31:03;;;;;;;7.28;4.15;;;;;;;;;;4376391;32;66316;-59
2023/07/17 15:33:54;;;;;;;7.35;4.75;;;;;;;;;;4397728;32;67116;-58
2023/07/17 15:36:41;;;;;;;7.55;5.25;;;;;;;;;;4387391;32;59990;-58
2023/07/17 15:39:28;;;;;;;7.70;5.28;;;;;;;;;;4397381;32;69208;-58
2023/07/17 15:42:15;;;;;;;7.03;4.97;;;;;;;;;;4396870;32;69438;-58
2023/07/17 15:45:05;;;;;;;8.05;5.10;;;;;;;;;;4376038;32;66736;-59
2023/07/17 15:47:52;;;;;;;6.55;4.78;;;;;;;;;;4397383;32;71980;-58
2023/07/17 15:50:38;;;;;;;6.85;4.68;;;;;;;;;;4397456;32;64889;-59
2023/07/17 15:53:25;;;;;;;;;;;;;;;;;;4398023;32;67954;-58
2023/07/17 15:56:12;;;;;;;8.23;4.95;;;;;;;;;;4396852;32;68366;-58
2023/07/17 15:59:01;;;;;;;7.97;4.87;;;;;;;;;;4385923;32;72326;-58
2023/07/17 16:01:48;;;;;;;8.02;5.00;;;;;;;;;;4397310;32;65877;-59
2023/07/17 16:04:35;;;;;;;9.48;5.97;;;;;;;;;;4364866;32;68826;-58
2023/07/17 16:07:22;;;;;;;10.82;5.97;;;;;;;;;;4387017;32;58991;-57
2023/07/17 16:10:08;;;;;;;;;;;;;;;;;;4376020;32;69695;-58
2023/07/17 16:12:55;;;;;;;10.68;6.07;;;;;;;;;;4398389;32;68611;-59
2023/07/17 16:15:42;;;;;;;9.23;6.37;;;;;;;;;;4386356;32;67436;-58
2023/07/17 16:18:28;;;;;;;12.20;6.47;;;;;;;;;;4377102;32;71926;-58
2023/07/17 16:21:16;;;;;;;10.00;6.18;;;;;;;;;;4387788;32;71086;-58
2023/07/17 16:24:03;;;;;;;11.35;6.40;;;;;;;;;;4386391;32;69383;-58
2023/07/17 16:26:50;;;;;;;10.43;6.47;;;;;;;;;;4376496;32;67872;-59
2023/07/17 16:29:37;;;;;;;9.43;5.60;;;;;;;;;;4398317;32;71549;-58
2023/07/17 16:32:23;;;;;;;;;;;;;;;;;;4389507;32;65760;-57
2023/07/17 16:35:10;;;;;;;10.32;6.60;;;;;;;;;;4388663;32;68210;-58
2023/07/17 16:37:56;;;;;;;9.63;6.47;;;;;;;;;;4410827;32;58273;-59
2023/07/17 16:40:46;;;;;;;9.23;6.00;;;;;;;;;;4401268;32;67943;-59
2023/07/17 16:43:33;;;;;;;10.45;6.50;;;;;;;;;;4412451;32;69657;-59
2023/07/17 16:46:20;;;;;;;10.30;6.50;;;;;;;;;;4399415;32;67851;-58
2023/07/17 16:49:07;;;;;;;9.45;6.18;;;;;;;;;;4411555;32;59930;-59
2023/07/17 16:51:53;;;;;;;12.23;7.35;;;;;;;;;;4388658;32;69692;-58
2023/07/17 16:54:41;;;;;;;10.75;6.75;;;;;;;;;;4399301;32;68608;-59
2023/07/17 16:57:30;;;;;;;;;;;;;;;;;;4387593;32;67281;-58
2023/07/17 17:00:17;;;;;;;11.18;6.65;;;;;;;;;;4397809;32;71850;-58
2023/07/17 17:03:05;;;;;;;10.82;7.40;;;;;;;;;;4394443;32;66184;-58